createdAt,value
2019-05-01T00:01:00.898Z,61.62
2019-05-01T00:03:36.411Z,64.37
2019-05-01T00:06:09.305Z,64.56
2019-05-01T00:08:40.078Z,63.59
2019-05-01T00:11:10.863Z,63.12
2019-05-01T00:13:41.627Z,62.41
2019-05-01T00:16:13.077Z,62.70
2019-05-01T00:18:43.854Z,61.91
2019-05-01T00:21:14.984Z,62.31
2019-05-01T00:23:45.753Z,62.21
2019-05-01T00:26:16.512Z,63.26
2019-05-01T00:28:47.299Z,64.50
2019-05-01T00:31:18.343Z,65.36
2019-05-01T00:33:49.258Z,64.83
2019-05-01T00:36:20.043Z,64.14
2019-05-01T00:38:50.814Z,63.30
2019-05-01T00:41:21.601Z,63.77
2019-05-01T00:43:52.386Z,63.83
2019-05-01T00:46:23.149Z,65.25
2019-05-01T00:48:53.942Z,64.91
2019-05-01T00:51:24.734Z,66.19
2019-05-01T00:53:55.500Z,67.10
2019-05-01T00:56:46.306Z,66.29
2019-05-01T00:59:24.750Z,66.23
2019-05-01T01:02:03.076Z,66.16
2019-05-01T01:04:33.868Z,66.57
2019-05-01T01:07:04.696Z,68.21
2019-05-01T01:09:35.453Z,67.53
2019-05-01T01:12:06.223Z,66.27
2019-05-01T01:14:37.010Z,66.87
2019-05-01T01:17:07.793Z,67.41
2019-05-01T01:19:38.573Z,68.10
2019-05-01T01:22:09.335Z,68.49
2019-05-01T01:24:40.107Z,67.17
2019-05-01T01:27:10.975Z,68.11
2019-05-01T01:29:41.890Z,69.50
2019-05-01T01:32:12.690Z,70.56
2019-05-01T01:34:43.658Z,70.58
2019-05-01T01:37:14.426Z,71.18
2019-05-01T01:39:45.407Z,70.07
2019-05-01T01:42:16.275Z,70.77
2019-05-01T01:44:55.046Z,71.26
2019-05-01T01:47:26.103Z,69.98
2019-05-01T01:49:56.993Z,70.17
2019-05-01T01:52:27.766Z,70.14
2019-05-01T01:54:58.651Z,70.78
2019-05-01T01:57:29.716Z,70.56
2019-05-01T02:00:00.613Z,71.28
2019-05-01T02:02:33.285Z,71.82
2019-05-01T02:05:09.444Z,72.18
2019-05-01T02:07:40.325Z,72.17
2019-05-01T02:10:11.437Z,71.86
2019-05-01T02:12:42.385Z,72.17
2019-05-01T02:15:13.461Z,71.24
2019-05-01T02:17:44.239Z,72.10
2019-05-01T02:20:15.224Z,71.78
2019-05-01T02:22:45.979Z,71.56
2019-05-01T02:25:17.058Z,71.67
2019-05-01T02:27:52.542Z,71.82
2019-05-01T02:30:23.841Z,72.30
2019-05-01T02:32:54.698Z,73.13
2019-05-01T02:35:25.525Z,73.37
2019-05-01T02:37:56.784Z,72.37
2019-05-01T02:40:43.510Z,72.84
2019-05-01T02:43:16.624Z,72.85
2019-05-01T02:45:51.200Z,73.32
2019-05-01T02:48:21.989Z,73.49
2019-05-01T02:50:55.642Z,73.52
2019-05-01T02:53:26.627Z,72.23
2019-05-01T02:56:16.203Z,72.43
2019-05-01T02:58:48.888Z,71.75
2019-05-01T03:01:19.961Z,72.37
2019-05-01T03:03:51.551Z,72.46
2019-05-01T03:06:22.533Z,72.48
2019-05-01T03:08:54.508Z,71.93
2019-05-01T03:11:26.477Z,71.66
2019-05-01T03:13:59.171Z,71.71
2019-05-01T03:16:31.785Z,71.26
2019-05-01T03:19:04.824Z,72.56
2019-05-01T03:21:37.549Z,73.33
2019-05-01T03:24:13.772Z,73.35
2019-05-01T03:26:44.676Z,72.00
2019-05-01T03:29:15.438Z,71.64
2019-05-01T03:32:13.295Z,71.75
2019-05-01T03:34:19.097Z,72.76
2019-05-01T03:36:50.091Z,71.61
2019-05-01T03:39:21.459Z,71.61
2019-05-01T03:41:52.460Z,72.79
2019-05-01T03:44:23.246Z,73.81
2019-05-01T03:46:54.138Z,73.38
2019-05-01T03:49:25.201Z,73.52
2019-05-01T03:51:56.497Z,73.75
2019-05-01T03:54:27.592Z,74.69
2019-05-01T03:56:58.486Z,74.89
2019-05-01T03:59:29.249Z,75.02
2019-05-01T04:02:31.609Z,74.08
2019-05-01T04:04:46.916Z,73.43
2019-05-01T04:07:17.889Z,73.57
2019-05-01T04:09:48.671Z,74.28
2019-05-01T04:12:19.442Z,73.74
2019-05-01T04:14:50.414Z,74.81
2019-05-01T04:17:23.091Z,73.80
2019-05-01T04:19:53.867Z,73.93
2019-05-01T04:22:24.865Z,73.93
2019-05-01T04:24:55.635Z,74.00
2019-05-01T04:27:28.514Z,73.93
2019-05-01T04:30:01.203Z,72.98
2019-05-01T04:32:49.999Z,72.60
2019-05-01T04:35:22.819Z,71.81
2019-05-01T04:37:54.121Z,72.11
2019-05-01T04:40:24.910Z,72.11
2019-05-01T04:42:56.168Z,72.43
2019-05-01T04:45:27.243Z,70.76
2019-05-01T04:47:58.034Z,70.31
2019-05-01T04:50:28.904Z,70.84
2019-05-01T04:52:59.708Z,70.56
2019-05-01T04:55:30.656Z,70.18
2019-05-01T04:58:01.456Z,69.67
2019-05-01T05:00:32.725Z,69.02
2019-05-01T05:03:08.419Z,70.51
2019-05-01T05:05:39.193Z,71.10
2019-05-01T05:08:10.078Z,70.45
2019-05-01T05:10:40.939Z,70.17
2019-05-01T05:13:32.029Z,68.47
2019-05-01T05:16:05.013Z,69.58
2019-05-01T05:18:36.123Z,68.95
2019-05-01T05:21:06.989Z,69.09
2019-05-01T05:23:37.976Z,68.32
2019-05-01T05:26:09.699Z,67.18
2019-05-01T05:28:41.785Z,67.33
2019-05-01T05:31:12.949Z,67.79
2019-05-01T05:33:45.027Z,67.88
2019-05-01T05:36:16.006Z,66.33
2019-05-01T05:38:54.752Z,66.46
2019-05-01T05:41:25.958Z,67.19
2019-05-01T05:43:57.045Z,67.40
2019-05-01T05:46:28.224Z,67.88
2019-05-01T05:48:59.206Z,66.95
2019-05-01T05:51:42.349Z,67.14
2019-05-01T05:54:16.347Z,65.37
2019-05-01T05:56:55.498Z,65.45
2019-05-01T05:59:29.477Z,64.50
2019-05-01T06:02:03.674Z,62.70
2019-05-01T06:04:38.258Z,62.30
2019-05-01T06:07:13.047Z,62.76
2019-05-01T06:09:48.494Z,61.41
2019-05-01T06:12:21.958Z,60.76
2019-05-01T06:14:54.838Z,60.56
2019-05-01T06:17:30.734Z,60.80
2019-05-01T06:20:06.419Z,61.04
2019-05-01T06:22:56.495Z,58.78
2019-05-01T06:25:29.518Z,60.26
2019-05-01T06:28:00.314Z,59.14
2019-05-01T06:30:32.496Z,57.87
2019-05-01T06:33:04.144Z,59.66
2019-05-01T06:35:38.259Z,58.81
2019-05-01T06:38:11.427Z,57.87
2019-05-01T06:40:44.214Z,57.82
2019-05-01T06:43:28.232Z,56.03
2019-05-01T06:46:10.055Z,58.99
2019-05-01T06:49:06.899Z,59.04
2019-05-01T06:51:48.048Z,59.20
2019-05-01T06:54:18.248Z,55.92
2019-05-01T06:56:49.020Z,55.40
2019-05-01T06:59:20.444Z,56.35
2019-05-01T07:01:53.087Z,55.89
2019-05-01T07:04:24.821Z,55.66
2019-05-01T07:06:56.712Z,56.48
2019-05-01T07:09:28.442Z,55.50
2019-05-01T07:12:00.934Z,54.49
2019-05-01T07:14:40.941Z,53.99
2019-05-01T07:17:14.860Z,53.12
2019-05-01T07:19:56.796Z,53.08
2019-05-01T07:22:30.041Z,52.60
2019-05-01T07:25:05.292Z,53.88
2019-05-01T07:27:36.134Z,53.41
2019-05-01T07:30:09.523Z,51.37
2019-05-01T07:32:41.205Z,51.08
2019-05-01T07:35:13.113Z,53.38
2019-05-01T07:37:43.960Z,53.75
2019-05-01T07:40:15.157Z,52.48
2019-05-01T07:42:50.574Z,53.50
2019-05-01T07:45:26.619Z,52.87
2019-05-01T07:48:00.964Z,52.45
2019-05-01T07:50:32.703Z,54.52
2019-05-01T07:53:04.304Z,56.60
2019-05-01T07:55:35.431Z,53.97
2019-05-01T07:58:10.464Z,54.51
2019-05-01T08:00:54.404Z,53.48
2019-05-01T08:03:25.171Z,52.53
2019-05-01T08:05:55.951Z,52.16
2019-05-01T08:08:29.412Z,52.12
2019-05-01T08:11:05.339Z,53.75
2019-05-01T08:13:34.976Z,53.18
2019-05-01T08:16:07.010Z,53.18
2019-05-01T08:18:52.796Z,54.61
2019-05-01T08:21:26.209Z,51.76
2019-05-01T08:23:58.156Z,52.76
2019-05-01T08:26:28.938Z,52.13
2019-05-01T08:29:02.932Z,51.11
2019-05-01T08:31:36.225Z,52.95
2019-05-01T08:34:11.840Z,51.43
2019-05-01T08:36:47.102Z,50.37
2019-05-01T08:39:15.320Z,50.37
2019-05-01T08:41:46.095Z,51.19
2019-05-01T08:44:18.378Z,52.45
2019-05-01T08:46:53.849Z,50.13
2019-05-01T08:49:49.540Z,49.10
2019-05-01T08:52:17.659Z,51.01
2019-05-01T08:54:48.425Z,51.01
2019-05-01T08:57:19.209Z,51.84
2019-05-01T08:59:49.973Z,51.00
2019-05-01T09:02:20.747Z,52.57
2019-05-01T09:05:01.665Z,48.50
2019-05-01T09:07:24.279Z,49.14
2019-05-01T09:09:55.202Z,49.84
2019-05-01T09:12:25.973Z,47.42
2019-05-01T09:14:56.765Z,47.29
2019-05-01T09:17:27.555Z,47.19
2019-05-01T09:19:58.330Z,47.50
2019-05-01T09:22:29.346Z,47.28
2019-05-01T09:25:01.771Z,47.40
2019-05-01T09:27:40.661Z,46.46
2019-05-01T09:30:15.263Z,48.82
2019-05-01T09:32:53.903Z,46.98
2019-05-01T09:35:20.636Z,45.68
2019-05-01T09:37:51.420Z,47.66
2019-05-01T09:40:22.192Z,45.92
2019-05-01T09:42:54.623Z,47.61
2019-05-01T09:45:25.845Z,45.66
2019-05-01T09:47:56.691Z,46.43
2019-05-01T09:50:30.522Z,46.22
2019-05-01T09:53:19.318Z,47.40
2019-05-01T09:55:51.995Z,48.69
2019-05-01T09:58:22.784Z,49.58
2019-05-01T10:00:55.453Z,48.41
2019-05-01T10:03:26.242Z,47.41
2019-05-01T10:05:57.023Z,46.84
2019-05-01T10:08:27.953Z,48.02
2019-05-01T10:10:59.978Z,48.43
2019-05-01T10:13:31.420Z,49.01
2019-05-01T10:16:02.190Z,46.08
2019-05-01T10:18:32.958Z,46.61
2019-05-01T10:21:03.756Z,48.86
2019-05-01T10:23:34.543Z,47.03
2019-05-01T10:26:07.220Z,47.88
2019-05-01T10:28:50.167Z,48.54
2019-05-01T10:31:26.160Z,46.66
2019-05-01T10:34:02.823Z,47.93
2019-05-01T10:36:36.733Z,48.98
2019-05-01T10:39:07.723Z,47.99
2019-05-01T10:41:44.551Z,48.27
2019-05-01T10:44:11.195Z,49.09
2019-05-01T10:46:42.044Z,49.36
2019-05-01T10:49:12.816Z,47.16
2019-05-01T10:51:43.584Z,46.86
2019-05-01T10:54:14.369Z,45.93
2019-05-01T10:56:45.150Z,47.08
2019-05-01T10:59:16.244Z,45.34
2019-05-01T11:01:48.915Z,44.93
2019-05-01T11:04:19.906Z,47.54
2019-05-01T11:06:50.797Z,45.23
2019-05-01T11:09:21.564Z,45.08
2019-05-01T11:11:52.336Z,45.95
2019-05-01T11:14:23.216Z,46.70
2019-05-01T11:16:54.017Z,45.50
2019-05-01T11:19:24.806Z,45.09
2019-05-01T11:21:55.574Z,47.50
2019-05-01T11:24:26.394Z,46.13
2019-05-01T11:26:57.157Z,47.21
2019-05-01T11:29:27.959Z,49.38
2019-05-01T11:32:19.271Z,48.73
2019-05-01T11:34:54.628Z,46.37
2019-05-01T11:37:39.698Z,47.08
2019-05-01T11:40:15.383Z,46.54
2019-05-01T11:42:46.155Z,47.18
2019-05-01T11:45:17.140Z,49.00
2019-05-01T11:47:47.909Z,49.00
2019-05-01T11:50:18.705Z,47.24
2019-05-01T11:52:49.792Z,46.04
2019-05-01T11:55:20.853Z,45.47
2019-05-01T11:57:51.625Z,46.03
2019-05-01T12:00:22.419Z,46.47
2019-05-01T12:02:53.196Z,46.47
2019-05-01T12:05:23.983Z,44.31
2019-05-01T12:07:54.781Z,44.85
2019-05-01T12:10:25.557Z,45.87
2019-05-01T12:12:56.329Z,47.44
2019-05-01T12:15:27.123Z,44.08
2019-05-01T12:17:57.885Z,45.37
2019-05-01T12:20:28.655Z,45.12
2019-05-01T12:22:59.435Z,46.38
2019-05-01T12:25:30.450Z,45.52
2019-05-01T12:28:01.246Z,44.17
2019-05-01T12:30:32.049Z,43.71
2019-05-01T12:33:03.225Z,42.86
2019-05-01T12:35:34.013Z,41.56
2019-05-01T12:38:04.856Z,41.94
2019-05-01T12:40:35.974Z,41.61
2019-05-01T12:43:06.741Z,40.36
2019-05-01T12:45:37.517Z,42.73
2019-05-01T12:48:08.497Z,42.72
2019-05-01T12:50:39.290Z,40.06
2019-05-01T12:53:14.477Z,39.73
2019-05-01T12:55:49.937Z,41.29
2019-05-01T12:58:20.730Z,39.56
2019-05-01T13:00:55.424Z,39.79
2019-05-01T13:03:26.297Z,40.50
2019-05-01T13:05:57.110Z,40.89
2019-05-01T13:08:27.879Z,41.78
2019-05-01T13:10:59.279Z,41.31
2019-05-01T13:13:30.045Z,42.02
2019-05-01T13:16:00.822Z,40.97
2019-05-01T13:18:31.587Z,41.49
2019-05-01T13:21:02.458Z,40.90
2019-05-01T13:23:33.228Z,42.01
2019-05-01T13:26:06.007Z,39.24
2019-05-01T13:28:44.416Z,39.58
2019-05-01T13:31:17.085Z,37.91
2019-05-01T13:33:47.958Z,38.90
2019-05-01T13:36:18.784Z,39.81
2019-05-01T13:38:49.551Z,40.79
2019-05-01T13:41:20.327Z,39.00
2019-05-01T13:43:51.103Z,37.78
2019-05-01T13:46:21.904Z,38.64
2019-05-01T13:48:52.692Z,38.63
2019-05-01T13:51:23.462Z,38.99
2019-05-01T13:53:54.345Z,39.06
2019-05-01T13:56:25.166Z,39.21
2019-05-01T13:58:55.946Z,38.83
2019-05-01T14:01:26.863Z,38.17
2019-05-01T14:03:57.636Z,39.36
2019-05-01T14:06:28.411Z,40.36
2019-05-01T14:08:59.993Z,40.32
2019-05-01T14:11:30.761Z,40.92
2019-05-01T14:14:01.535Z,40.90
2019-05-01T14:16:32.293Z,41.05
2019-05-01T14:19:03.381Z,41.62
2019-05-01T14:21:39.116Z,41.09
2019-05-01T14:24:11.790Z,41.05
2019-05-01T14:26:42.558Z,40.99
2019-05-01T14:29:13.346Z,40.69
2019-05-01T14:31:44.092Z,36.48
2019-05-01T14:34:14.915Z,35.65
2019-05-01T14:36:45.680Z,36.43
2019-05-01T14:39:16.459Z,35.29
2019-05-01T14:41:47.226Z,34.08
2019-05-01T14:44:18.227Z,31.82
2019-05-01T14:46:48.998Z,33.65
2019-05-01T14:49:19.854Z,35.05
2019-05-01T14:51:50.693Z,36.10
2019-05-01T14:54:21.483Z,36.47
2019-05-01T14:56:52.246Z,36.42
2019-05-01T14:59:23.037Z,36.61
2019-05-01T15:01:53.805Z,36.10
2019-05-01T15:04:24.649Z,38.43
2019-05-01T15:06:55.458Z,37.95
2019-05-01T15:09:26.231Z,39.02
2019-05-01T15:11:57.041Z,37.32
2019-05-01T15:14:35.614Z,37.94
2019-05-01T15:17:08.285Z,38.99
2019-05-01T15:19:49.917Z,38.00
2019-05-01T15:22:20.700Z,38.40
2019-05-01T15:24:51.477Z,38.09
2019-05-01T15:27:22.262Z,38.21
2019-05-01T15:29:53.220Z,38.39
2019-05-01T15:32:24.001Z,39.27
2019-05-01T15:34:54.771Z,38.72
2019-05-01T15:37:25.559Z,38.26
2019-05-01T15:39:58.245Z,37.58
2019-05-01T15:42:33.888Z,38.96
2019-05-01T15:45:05.159Z,38.27
2019-05-01T15:47:35.948Z,40.08
2019-05-01T15:50:07.142Z,38.52
2019-05-01T15:52:37.978Z,38.68
2019-05-01T15:55:09.445Z,38.25
2019-05-01T15:57:40.220Z,39.33
2019-05-01T16:00:13.427Z,39.73
2019-05-01T16:02:44.201Z,38.96
2019-05-01T16:05:15.183Z,39.49
2019-05-01T16:07:46.104Z,38.76
2019-05-01T16:10:18.904Z,39.57
2019-05-01T16:12:56.160Z,37.84
2019-05-01T16:15:32.223Z,37.71
2019-05-01T16:18:04.060Z,39.28
2019-05-01T16:20:34.840Z,40.87
2019-05-01T16:23:05.621Z,39.34
2019-05-01T16:25:36.393Z,40.65
2019-05-01T16:28:07.183Z,41.48
2019-05-01T16:30:37.964Z,38.52
2019-05-01T16:33:08.732Z,41.12
2019-05-01T16:35:39.525Z,39.88
2019-05-01T16:38:22.412Z,41.48
2019-05-01T16:40:49.547Z,41.15
2019-05-01T16:43:20.352Z,41.51
2019-05-01T16:45:51.108Z,42.94
2019-05-01T16:48:21.891Z,42.21
2019-05-01T16:50:52.700Z,42.74
2019-05-01T16:53:23.448Z,42.19
2019-05-01T16:55:56.137Z,42.43
2019-05-01T16:58:27.119Z,44.64
2019-05-01T17:01:04.956Z,44.11
2019-05-01T17:03:43.439Z,41.55
2019-05-01T17:06:18.917Z,45.02
2019-05-01T17:09:03.680Z,45.08
2019-05-01T17:11:34.725Z,43.84
2019-05-01T17:14:07.021Z,44.87
2019-05-01T17:16:37.976Z,44.10
2019-05-01T17:19:08.946Z,45.54
2019-05-01T17:21:40.049Z,45.40
2019-05-01T17:24:10.807Z,47.00
2019-05-01T17:26:41.684Z,48.76
2019-05-01T17:29:12.634Z,46.73
2019-05-01T17:31:43.720Z,46.50
2019-05-01T17:34:14.640Z,47.15
2019-05-01T17:36:45.841Z,46.13
2019-05-01T17:39:16.610Z,47.31
2019-05-01T17:41:47.399Z,49.18
2019-05-01T17:44:25.031Z,49.18
2019-05-01T17:46:53.175Z,48.76
2019-05-01T17:49:23.965Z,48.52
2019-05-01T17:52:00.347Z,49.04
2019-05-01T17:54:31.141Z,48.65
2019-05-01T17:57:13.282Z,49.69
2019-05-01T17:59:35.333Z,49.64
2019-05-01T18:02:23.388Z,51.13
2019-05-01T18:04:56.143Z,50.97
2019-05-01T18:07:33.052Z,50.97
2019-05-01T18:10:05.638Z,51.85
2019-05-01T18:12:36.645Z,52.69
2019-05-01T18:15:08.057Z,52.35
2019-05-01T18:17:39.120Z,52.35
2019-05-01T18:20:10.170Z,54.31
2019-05-01T18:22:51.927Z,55.61
2019-05-01T18:25:33.078Z,56.11
2019-05-01T18:28:12.134Z,56.57
2019-05-01T18:30:44.103Z,56.57
2019-05-01T18:33:15.045Z,57.69
2019-05-01T18:35:55.090Z,57.69
2019-05-01T18:38:30.962Z,55.16
2019-05-01T18:41:04.358Z,55.16
2019-05-01T18:43:36.114Z,54.81
2019-05-01T18:46:08.790Z,55.67
2019-05-01T18:48:39.690Z,57.17
2019-05-01T18:51:10.553Z,56.79
2019-05-01T18:53:41.612Z,55.45
2019-05-01T18:56:12.397Z,55.98
2019-05-01T18:58:43.464Z,56.77
2019-05-01T19:01:14.236Z,57.61
2019-05-01T19:03:45.147Z,58.89
2019-05-01T19:06:16.126Z,58.70
2019-05-01T19:08:47.376Z,59.82
2019-05-01T19:11:18.312Z,59.53
2019-05-01T19:13:49.142Z,61.55
2019-05-01T19:16:19.968Z,63.32
2019-05-01T19:18:50.860Z,62.63
2019-05-01T19:21:23.821Z,62.53
2019-05-01T19:24:00.611Z,61.83
2019-05-01T19:26:28.063Z,60.80
2019-05-01T19:28:59.126Z,61.04
2019-05-01T19:31:30.024Z,63.04
2019-05-01T19:34:00.961Z,63.79
2019-05-01T19:36:31.816Z,63.20
2019-05-01T19:39:06.846Z,63.14
2019-05-01T19:41:37.992Z,61.96
2019-05-01T19:44:08.824Z,62.79
2019-05-01T19:46:39.607Z,63.62
2019-05-01T19:49:10.410Z,64.24
2019-05-01T19:51:41.185Z,64.65
2019-05-01T19:54:12.221Z,65.02
2019-05-01T19:56:43.004Z,65.70
2019-05-01T19:59:13.798Z,66.25
2019-05-01T20:01:49.111Z,64.69
2019-05-01T20:04:17.373Z,64.38
2019-05-01T20:06:48.117Z,66.61
2019-05-01T20:09:19.353Z,66.05
2019-05-01T20:11:50.153Z,67.37
2019-05-01T20:14:21.001Z,66.53
2019-05-01T20:16:51.884Z,65.96
2019-05-01T20:19:22.964Z,66.36
2019-05-01T20:21:54.191Z,65.15
2019-05-01T20:24:25.148Z,67.43
2019-05-01T20:26:55.927Z,66.69
2019-05-01T20:29:27.498Z,67.87
2019-05-01T20:31:58.909Z,69.14
2019-05-01T20:34:29.703Z,66.60
2019-05-01T20:37:00.480Z,68.78
2019-05-01T20:39:31.287Z,68.98
2019-05-01T20:42:02.545Z,69.84
2019-05-01T20:44:33.354Z,67.71
2019-05-01T20:47:04.151Z,69.20
2019-05-01T20:49:36.563Z,71.04
2019-05-01T20:52:07.750Z,71.19
2019-05-01T20:54:38.526Z,69.66
2019-05-01T20:57:13.592Z,70.94
2019-05-01T20:59:44.392Z,71.82
2019-05-01T21:02:15.293Z,72.59
2019-05-01T21:04:53.815Z,73.27
2019-05-01T21:07:29.734Z,73.13
2019-05-01T21:10:02.256Z,73.46
2019-05-01T21:12:33.056Z,71.80
2019-05-01T21:15:05.196Z,72.38
2019-05-01T21:17:36.095Z,71.71
2019-05-01T21:20:07.084Z,70.92
2019-05-01T21:22:37.894Z,71.93
2019-05-01T21:25:08.857Z,73.23
2019-05-01T21:27:39.752Z,73.49
2019-05-01T21:30:10.805Z,72.84
2019-05-01T21:32:41.725Z,72.38
2019-05-01T21:35:13.732Z,73.58
2019-05-01T21:37:44.598Z,74.09
2019-05-01T21:40:15.438Z,74.54
2019-05-01T21:42:47.445Z,74.73
2019-05-01T21:45:19.058Z,74.64
2019-05-01T21:47:49.843Z,74.30
2019-05-01T21:50:22.847Z,74.43
2019-05-01T21:52:53.822Z,74.62
2019-05-01T21:55:30.201Z,75.54
2019-05-01T21:57:58.759Z,75.17
2019-05-01T22:00:31.431Z,75.46
2019-05-01T22:03:02.708Z,75.42
2019-05-01T22:05:34.655Z,74.80
2019-05-01T22:08:07.099Z,75.76
2019-05-01T22:10:50.787Z,76.37
2019-05-01T22:13:10.997Z,76.29
2019-05-01T22:15:52.907Z,75.68
2019-05-01T22:18:28.393Z,73.98
2019-05-01T22:21:01.083Z,74.58
2019-05-01T22:25:15.221Z,74.47
2019-05-01T22:28:27.975Z,74.47
2019-05-01T22:31:16.730Z,74.47
2019-05-01T22:33:50.360Z,76.09
2019-05-01T22:36:21.193Z,76.22
2019-05-01T22:38:52.017Z,76.62
2019-05-01T22:41:22.820Z,76.87
2019-05-01T22:43:53.712Z,77.07
2019-05-01T22:46:27.263Z,77.04
2019-05-01T22:48:58.034Z,76.89
2019-05-01T22:51:28.837Z,77.05
2019-05-01T22:53:59.593Z,77.79
2019-05-01T22:56:30.412Z,77.91
2019-05-01T22:59:01.616Z,73.70
2019-05-01T23:01:32.551Z,75.03
2019-05-01T23:04:04.978Z,76.76
2019-05-01T23:06:37.215Z,77.82
2019-05-01T23:09:10.111Z,78.02
2019-05-01T23:11:43.415Z,77.48
2019-05-01T23:14:14.622Z,75.58
2019-05-01T23:16:50.131Z,77.17
2019-05-01T23:19:22.921Z,77.53
2019-05-01T23:21:53.608Z,77.68
2019-05-01T23:24:24.395Z,78.17
2019-05-01T23:26:55.179Z,77.92
2019-05-01T23:29:25.979Z,78.54
2019-05-01T23:31:57.083Z,79.00
2019-05-01T23:34:28.000Z,78.81
2019-05-01T23:36:58.797Z,78.69
2019-05-01T23:39:29.566Z,77.36
2019-05-01T23:42:00.336Z,74.26
2019-05-01T23:44:31.105Z,76.44
2019-05-01T23:47:01.864Z,77.91
2019-05-01T23:49:32.643Z,78.42
2019-05-01T23:52:05.144Z,77.47
2019-05-01T23:54:36.078Z,76.57
2019-05-01T23:57:06.855Z,77.98
2019-05-01T23:59:37.612Z,78.40
